Time;durP1;ratioP1;P1;durP2;ratioP2;P2;SDS_P1;SDS_P2;PMS_P1;PMS_P2;Temp;Humidity;BMP_temperature;BMP_pressure;BME280_temperature;BME280_humidity;BME280_pressure;Samples;Min_cycle;Max_cycle;Signal;HPM_P1;HPM_P2
2022/09/23 00:01:10;;;;;;;8.80;2.17;;;20.30;99.90;;;;;;4984547;28;20213;-71
2022/09/23 00:03:46;;;;;;;12.77;2.53;;;20.30;99.90;;;;;;4989862;28;20183;-71
2022/09/23 00:06:18;;;;;;;7.70;2.13;;;20.30;99.90;;;;;;5010320;28;20639;-71
2022/09/23 00:08:45;;;;;;;11.07;2.20;;;20.30;99.90;;;;;;4994952;28;20278;-71
2022/09/23 00:11:25;;;;;;;7.37;2.10;;;20.30;99.90;;;;;;5014196;28;20315;-71
2022/09/23 00:13:58;;;;;;;11.30;2.10;;;20.20;99.90;;;;;;4983058;28;20189;-71
2022/09/23 00:16:31;;;;;;;9.80;2.30;;;20.20;99.90;;;;;;4990589;28;20192;-71
2022/09/23 00:18:57;;;;;;;8.83;2.30;;;20.30;99.90;;;;;;4997981;28;20193;-71
2022/09/23 00:21:24;;;;;;;9.23;2.27;;;20.30;99.90;;;;;;5002308;28;20813;-70
2022/09/23 00:23:50;;;;;;;13.13;2.50;;;20.20;99.90;;;;;;5002780;28;20197;-71
2022/09/23 00:26:20;;;;;;;14.37;2.33;;;20.30;99.90;;;;;;4969412;28;20190;-70
2022/09/23 00:28:48;;;;;;;8.57;2.70;;;20.20;99.90;;;;;;4980821;28;20184;-70
2022/09/23 00:31:23;;;;;;;8.27;2.40;;;20.20;99.90;;;;;;5009182;28;20227;-70
2022/09/23 00:34:01;;;;;;;9.83;2.70;;;20.20;99.90;;;;;;5005965;28;20235;-71
2022/09/23 00:36:31;;;;;;;9.17;2.20;;;20.20;99.90;;;;;;4983565;28;20189;-70
2022/09/23 00:38:57;;;;;;;8.43;2.30;;;20.10;99.90;;;;;;5017835;28;20196;-71
2022/09/23 00:41:24;;;;;;;11.63;2.43;;;20.10;99.90;;;;;;5013213;28;20213;-71
2022/09/23 00:43:56;;;;;;;13.43;2.60;;;20.10;99.90;;;;;;5013693;28;20787;-70
2022/09/23 00:46:38;;;;;;;12.43;2.47;;;20.10;99.90;;;;;;4992697;28;20228;-70
2022/09/23 00:49:29;;;;;;;9.33;2.10;;;20.10;99.90;;;;;;4998102;28;20203;-70
2022/09/23 00:52:13;;;;;;;8.93;2.60;;;20.10;99.90;;;;;;5000333;28;20251;-71
2022/09/23 00:54:42;;;;;;;10.97;2.30;;;20.00;99.90;;;;;;5008339;28;20184;-70
2022/09/23 00:57:10;;;;;;;8.57;2.30;;;20.00;99.90;;;;;;4989705;28;20616;-71
2022/09/23 00:59:41;;;;;;;13.23;2.47;;;20.00;99.90;;;;;;4987514;28;20276;-71
2022/09/23 01:02:09;;;;;;;8.73;2.40;;;19.90;99.90;;;;;;4992365;28;20212;-70
2022/09/23 01:04:36;;;;;;;7.90;2.20;;;19.90;99.90;;;;;;5015520;28;20180;-70
2022/09/23 01:07:03;;;;;;;9.77;2.63;;;19.90;99.90;;;;;;5001750;28;20193;-71
2022/09/23 01:09:29;;;;;;;6.07;2.00;;;19.90;99.90;;;;;;4996119;28;20224;-70
2022/09/23 01:13:02;;;;;;;7.07;2.23;;;19.90;99.90;;;;;;5010422;28;20189;-70
2022/09/23 01:15:44;;;;;;;6.50;2.20;;;19.90;99.90;;;;;;4946987;28;20210;-71
2022/09/23 01:18:33;;;;;;;7.30;2.20;;;19.90;99.90;;;;;;4939642;29;20335;-71
2022/09/23 01:21:30;;;;;;;9.30;1.90;;;19.80;99.90;;;;;;4986332;28;20220;-71
2022/09/23 01:24:36;;;;;;;13.17;2.53;;;19.80;99.90;;;;;;5009189;28;20558;-71
2022/09/23 01:28:02;;;;;;;6.47;2.10;;;19.70;99.90;;;;;;5005318;28;20189;-70
2022/09/23 01:30:43;;;;;;;10.20;2.00;;;19.60;99.90;;;;;;4995273;28;20689;-71
2022/09/23 01:33:39;;;;;;;9.87;2.07;;;19.70;99.90;;;;;;5014880;28;20195;-70
2022/09/23 01:36:36;;;;;;;10.37;2.20;;;19.70;99.90;;;;;;5002692;28;20347;-71
2022/09/23 01:39:21;;;;;;;12.13;2.50;;;19.70;99.90;;;;;;4989361;28;20191;-71
2022/09/23 01:42:30;;;;;;;5.07;1.60;;;19.70;99.90;;;;;;5006261;28;20633;-71
2022/09/23 01:45:14;;;;;;;9.00;2.20;;;19.70;99.90;;;;;;5000843;28;20235;-71
2022/09/23 01:48:01;;;;;;;7.13;1.83;;;19.70;99.90;;;;;;4984969;28;20966;-71
2022/09/23 01:53:40;;;;;;;6.60;1.93;;;19.70;99.90;;;;;;5009419;28;20189;-71
2022/09/23 01:56:29;;;;;;;7.83;2.03;;;19.60;99.90;;;;;;5007638;28;20250;-71
2022/09/23 01:59:00;;;;;;;10.77;2.40;;;19.60;99.90;;;;;;4992970;28;20197;-71
2022/09/23 02:01:49;;;;;;;6.40;2.07;;;19.60;99.90;;;;;;4997255;28;20214;-71
2022/09/23 02:04:57;;;;;;;6.07;1.83;;;19.60;99.90;;;;;;5008404;28;20615;-71
2022/09/23 02:07:31;;;;;;;9.33;2.40;;;19.60;99.90;;;;;;4999040;28;20193;-71
2022/09/23 02:10:36;;;;;;;7.63;2.20;;;19.60;99.90;;;;;;4998563;28;20585;-71
2022/09/23 02:13:14;;;;;;;6.17;2.00;;;19.50;99.90;;;;;;4992854;28;20325;-71
2022/09/23 02:15:49;;;;;;;10.30;2.13;;;19.50;99.90;;;;;;4995933;28;20203;-71
2022/09/23 02:18:30;;;;;;;7.93;2.07;;;19.50;99.90;;;;;;5008046;28;20694;-71
2022/09/23 02:21:03;;;;;;;11.60;2.37;;;19.50;99.90;;;;;;4999011;28;20201;-71
2022/09/23 02:23:51;;;;;;;11.77;2.07;;;19.40;99.90;;;;;;5008688;28;20226;-71
2022/09/23 02:26:50;;;;;;;7.37;2.17;;;19.40;99.90;;;;;;5012368;28;20762;-71
2022/09/23 02:30:14;;;;;;;9.03;2.30;;;19.40;99.90;;;;;;5005070;28;20188;-71
2022/09/23 02:33:03;;;;;;;6.77;2.00;;;19.40;99.90;;;;;;5010871;28;20558;-71
2022/09/23 02:35:54;;;;;;;13.67;1.90;;;19.30;99.90;;;;;;5008701;28;20308;-71
2022/09/23 02:38:39;;;;;;;6.27;1.83;;;19.20;99.90;;;;;;4998460;28;20655;-71
2022/09/23 02:41:50;;;;;;;10.23;2.40;;;19.20;99.90;;;;;;4988759;28;20698;-71
2022/09/23 02:44:22;;;;;;;8.87;2.00;;;19.20;99.90;;;;;;5001414;28;20200;-71
2022/09/23 02:46:50;;;;;;;4.80;2.20;;;19.20;99.90;;;;;;5012083;28;20832;-71
2022/09/23 02:49:25;;;;;;;7.13;2.10;;;19.20;99.90;;;;;;4993806;28;20293;-71
2022/09/23 02:51:53;;;;;;;6.70;2.37;;;19.20;99.90;;;;;;5000844;28;20196;-71
2022/09/23 02:54:24;;;;;;;6.33;2.20;;;19.10;99.90;;;;;;5013170;28;20219;-71
2022/09/23 02:56:52;;;;;;;8.33;2.30;;;19.00;99.90;;;;;;5006733;28;20203;-71
2022/09/23 02:59:21;;;;;;;11.93;2.10;;;18.90;99.90;;;;;;5001537;28;20590;-71
2022/09/23 03:02:19;;;;;;;6.20;2.03;;;18.90;99.90;;;;;;4998835;28;20220;-70
2022/09/23 03:05:25;;;;;;;12.47;2.97;;;18.90;99.90;;;;;;5009186;28;20200;-70
2022/09/23 03:08:18;;;;;;;5.90;2.07;;;18.80;99.90;;;;;;4985593;28;20212;-71
2022/09/23 03:11:14;;;;;;;5.47;1.87;;;18.80;99.90;;;;;;5006545;28;20778;-71
2022/09/23 03:14:17;;;;;;;7.60;2.20;;;18.80;99.90;;;;;;5001075;28;20181;-70
2022/09/23 03:16:55;;;;;;;12.80;2.50;;;18.90;99.90;;;;;;4985130;28;20267;-72
2022/09/23 03:19:41;;;;;;;8.90;2.13;;;18.80;99.90;;;;;;4982565;28;20246;-72
2022/09/23 03:22:34;;;;;;;8.10;2.30;;;18.80;99.90;;;;;;4975908;28;20209;-73
2022/09/23 03:25:18;;;;;;;6.77;2.20;;;18.70;99.90;;;;;;4984703;28;20193;-72
2022/09/23 03:27:46;;;;;;;6.00;1.90;;;18.70;99.90;;;;;;5015118;28;20532;-71
2022/09/23 03:30:13;;;;;;;5.90;2.13;;;18.50;99.90;;;;;;4996286;28;20185;-70
2022/09/23 03:32:45;;;;;;;4.50;1.67;;;18.60;99.90;;;;;;4987871;28;20192;-72
2022/09/23 03:35:13;;;;;;;6.27;2.13;;;18.60;99.90;;;;;;4989355;28;20174;-72
2022/09/23 03:37:52;;;;;;;7.73;2.00;;;18.50;99.90;;;;;;4985966;28;20189;-73
2022/09/23 03:40:42;;;;;;;10.63;2.40;;;18.60;99.90;;;;;;4976344;28;20822;-73
2022/09/23 03:43:14;;;;;;;5.43;2.00;;;18.50;99.90;;;;;;4987845;28;20288;-73
2022/09/23 03:45:41;;;;;;;5.13;2.07;;;18.50;99.90;;;;;;5002079;28;20188;-73
2022/09/23 03:48:08;;;;;;;8.30;2.10;;;18.50;99.90;;;;;;5009680;28;20234;-72
2022/09/23 03:50:35;;;;;;;7.23;2.33;;;18.50;99.90;;;;;;5007846;28;20280;-73
2022/09/23 03:53:02;;;;;;;4.77;1.80;;;18.40;99.90;;;;;;5008277;28;20614;-72
2022/09/23 03:55:29;;;;;;;10.20;2.23;;;18.40;99.90;;;;;;5005330;28;20204;-72
2022/09/23 03:57:55;;;;;;;10.60;2.10;;;18.40;99.90;;;;;;5013327;28;20230;-72
2022/09/23 04:00:22;;;;;;;6.77;2.03;;;18.40;99.90;;;;;;4995017;28;20188;-73
2022/09/23 04:02:50;;;;;;;8.30;2.00;;;18.40;99.90;;;;;;4990703;28;24973;-73
2022/09/23 04:05:17;;;;;;;9.00;2.37;;;18.40;99.90;;;;;;5003244;28;20180;-70
2022/09/23 04:07:44;;;;;;;4.43;1.93;;;18.30;99.90;;;;;;4980163;28;20181;-72
2022/09/23 04:10:11;;;;;;;8.77;2.27;;;18.20;99.90;;;;;;5021057;28;20183;-73
2022/09/23 04:12:37;;;;;;;7.60;2.00;;;18.30;99.90;;;;;;5008041;28;20184;-72
2022/09/23 04:15:05;;;;;;;7.23;1.90;;;18.30;99.90;;;;;;5012413;28;20231;-72
2022/09/23 04:17:32;;;;;;;10.50;2.37;;;18.40;99.90;;;;;;5009331;28;20196;-72
2022/09/23 04:19:58;;;;;;;7.63;2.07;;;18.40;99.90;;;;;;5010454;28;20268;-73
2022/09/23 04:22:25;;;;;;;6.07;1.80;;;18.50;99.90;;;;;;4999939;28;20304;-70
2022/09/23 04:24:51;;;;;;;10.37;1.90;;;18.50;99.90;;;;;;5005657;28;20208;-73
2022/09/23 04:27:21;;;;;;;7.53;2.27;;;18.60;99.90;;;;;;4979252;28;20193;-72
2022/09/23 04:29:47;;;;;;;6.73;1.83;;;18.50;99.90;;;;;;5010748;28;20185;-70
2022/09/23 04:32:14;;;;;;;7.57;1.90;;;18.60;99.90;;;;;;5003075;28;20205;-70
2022/09/23 04:34:40;;;;;;;6.77;2.07;;;18.60;99.90;;;;;;5005622;28;20181;-73
2022/09/23 04:37:06;;;;;;;13.10;2.53;;;18.60;99.90;;;;;;4978439;28;20186;-70
2022/09/23 04:39:33;;;;;;;7.73;1.90;;;18.70;99.90;;;;;;5007125;28;20196;-70
2022/09/23 04:42:00;;;;;;;4.13;1.90;;;18.70;99.90;;;;;;4978599;28;20626;-70
2022/09/23 04:44:27;;;;;;;8.00;2.17;;;18.70;99.90;;;;;;5013112;28;20185;-71
2022/09/23 04:46:53;;;;;;;6.43;2.00;;;18.70;99.90;;;;;;5000765;28;20196;-71
2022/09/23 04:49:20;;;;;;;5.20;2.07;;;18.80;99.90;;;;;;5011693;28;20304;-71
2022/09/23 04:51:47;;;;;;;7.80;2.20;;;18.80;99.90;;;;;;5009170;28;20196;-71
2022/09/23 04:54:13;;;;;;;8.33;2.20;;;18.90;99.90;;;;;;5010533;28;20682;-71
2022/09/23 04:56:40;;;;;;;9.03;2.07;;;18.90;99.90;;;;;;4993460;28;20296;-71
2022/09/23 04:59:07;;;;;;;7.40;1.87;;;18.90;99.90;;;;;;4994665;28;20251;-71
2022/09/23 05:01:35;;;;;;;6.97;2.07;;;19.00;99.90;;;;;;5011500;28;20550;-71
2022/09/23 05:04:09;;;;;;;7.73;2.20;;;19.00;99.90;;;;;;4972144;28;20220;-71
2022/09/23 05:06:35;;;;;;;8.60;2.07;;;19.10;99.90;;;;;;4991835;28;20185;-71
2022/09/23 05:09:06;;;;;;;7.10;1.83;;;19.10;99.90;;;;;;4994311;28;20753;-71
2022/09/23 05:11:34;;;;;;;7.67;2.00;;;19.20;99.90;;;;;;5000165;28;20271;-72
2022/09/23 05:14:01;;;;;;;9.47;2.53;;;19.30;99.90;;;;;;5008520;28;21051;-71
2022/09/23 05:16:28;;;;;;;8.90;2.10;;;19.50;99.90;;;;;;5002859;28;20220;-71
2022/09/23 05:18:55;;;;;;;7.50;2.17;;;19.60;99.90;;;;;;5005283;28;20524;-71
2022/09/23 05:21:23;;;;;;;8.03;2.20;;;19.70;99.90;;;;;;5009016;28;20284;-71
2022/09/23 05:23:57;;;;;;;5.17;1.90;;;19.70;99.90;;;;;;5012681;28;20272;-71
2022/09/23 05:26:30;;;;;;;13.00;2.60;;;19.80;99.90;;;;;;5009956;28;20180;-71
2022/09/23 05:28:58;;;;;;;6.60;2.10;;;19.80;99.90;;;;;;4989604;28;20209;-71
2022/09/23 05:31:27;;;;;;;6.77;2.13;;;19.80;99.90;;;;;;5006251;28;20266;-71
2022/09/23 05:34:00;;;;;;;11.20;2.60;;;19.80;99.90;;;;;;4991186;28;20224;-71
2022/09/23 05:36:30;;;;;;;9.33;2.57;;;19.70;99.90;;;;;;5007398;28;20255;-71
2022/09/23 05:38:57;;;;;;;5.83;2.07;;;19.70;99.90;;;;;;4992442;28;20193;-71
2022/09/23 05:41:25;;;;;;;7.47;2.23;;;19.70;99.90;;;;;;5008946;28;20212;-71
2022/09/23 05:43:54;;;;;;;9.40;2.10;;;19.70;99.90;;;;;;5011363;28;20195;-71
2022/09/23 05:46:27;;;;;;;9.37;2.17;;;19.80;99.90;;;;;;5010674;28;20181;-71
2022/09/23 05:48:56;;;;;;;8.33;2.67;;;19.80;99.90;;;;;;5005511;28;20219;-71
2022/09/23 05:51:26;;;;;;;8.60;2.60;;;19.80;99.90;;;;;;5001395;28;20260;-71
2022/09/23 05:53:57;;;;;;;6.57;2.50;;;19.80;99.90;;;;;;4993966;28;20203;-71
2022/09/23 05:56:26;;;;;;;8.73;2.57;;;19.90;99.90;;;;;;4992688;28;20196;-71
2022/09/23 05:58:55;;;;;;;12.90;2.50;;;19.90;99.90;;;;;;5008824;28;20189;-71
2022/09/23 06:01:32;;;;;;;12.30;2.50;;;20.00;99.90;;;;;;5007850;28;20213;-71
2022/09/23 06:04:01;;;;;;;10.60;2.50;;;20.00;99.90;;;;;;5014441;28;20278;-71
2022/09/23 06:06:35;;;;;;;9.60;3.10;;;20.00;99.90;;;;;;5002414;28;20185;-71
2022/09/23 06:09:02;;;;;;;5.50;2.60;;;20.00;99.90;;;;;;5005007;28;20224;-71
2022/09/23 06:11:34;;;;;;;8.40;2.53;;;20.00;99.90;;;;;;5009547;28;20193;-71
2022/09/23 06:14:03;;;;;;;13.17;2.50;;;20.00;99.90;;;;;;4992794;28;20784;-71
2022/09/23 06:16:33;;;;;;;10.23;3.03;;;20.10;99.90;;;;;;5013712;28;20196;-71
2022/09/23 06:19:04;;;;;;;8.83;2.73;;;20.20;99.90;;;;;;5009543;28;20185;-71
2022/09/23 06:21:32;;;;;;;8.60;2.40;;;20.30;99.90;;;;;;5007537;28;20232;-71
2022/09/23 06:24:05;;;;;;;10.83;2.90;;;20.30;99.90;;;;;;5007347;28;20196;-71
2022/09/23 06:26:33;;;;;;;12.33;3.00;;;20.30;99.90;;;;;;4996808;28;20619;-71
2022/09/23 06:29:02;;;;;;;12.10;3.17;;;20.30;99.90;;;;;;4988074;28;20177;-71
2022/09/23 06:31:29;;;;;;;17.57;3.00;;;20.40;99.90;;;;;;5004571;28;20193;-71
2022/09/23 06:33:55;;;;;;;8.13;2.67;;;20.40;99.90;;;;;;5007318;28;20193;-71
2022/09/23 06:36:22;;;;;;;9.17;2.53;;;20.40;99.90;;;;;;5005442;28;20236;-71
2022/09/23 06:38:49;;;;;;;8.83;2.73;;;20.30;99.90;;;;;;4999096;28;20230;-71
2022/09/23 06:41:19;;;;;;;15.07;2.70;;;20.40;99.90;;;;;;5010716;28;20667;-71
2022/09/23 06:43:47;;;;;;;13.17;2.80;;;20.60;99.90;;;;;;4990063;28;20185;-71
2022/09/23 06:46:16;;;;;;;6.00;2.20;;;20.70;99.90;;;;;;5009548;28;20547;-71
2022/09/23 06:48:43;;;;;;;15.37;2.80;;;20.90;99.90;;;;;;4998389;28;20184;-71
2022/09/23 06:51:17;;;;;;;9.90;3.30;;;21.00;99.90;;;;;;5003863;28;20716;-71
2022/09/23 06:53:47;;;;;;;7.67;2.57;;;21.10;99.90;;;;;;5009462;28;20184;-71
2022/09/23 06:56:15;;;;;;;8.60;2.20;;;21.10;99.90;;;;;;5006122;28;20519;-71
2022/09/23 06:58:42;;;;;;;10.63;2.90;;;21.00;99.90;;;;;;4990288;28;20189;-71
2022/09/23 07:01:14;;;;;;;9.30;2.60;;;21.00;99.90;;;;;;4985671;28;20685;-71
2022/09/23 07:03:43;;;;;;;8.10;2.30;;;21.10;99.90;;;;;;4994851;28;20188;-71
2022/09/23 07:06:10;;;;;;;8.10;2.13;;;21.10;99.90;;;;;;5004322;28;20180;-71
2022/09/23 07:08:37;;;;;;;9.50;2.80;;;21.10;99.90;;;;;;5003602;28;20188;-71
2022/09/23 07:11:06;;;;;;;8.57;2.53;;;21.10;99.90;;;;;;4992333;28;20192;-71
2022/09/23 07:13:33;;;;;;;10.67;2.47;;;21.10;99.90;;;;;;5011741;28;20570;-71
2022/09/23 07:16:01;;;;;;;9.87;2.30;;;21.20;99.90;;;;;;5009201;28;20189;-71
2022/09/23 07:18:32;;;;;;;11.33;2.90;;;21.20;99.90;;;;;;4990150;28;20516;-71
2022/09/23 07:21:13;;;;;;;9.40;2.30;;;21.30;99.90;;;;;;5004060;28;20316;-71
2022/09/23 07:23:41;;;;;;;9.32;2.92;;;21.40;99.90;;;;;;5002182;28;20215;-71
2022/09/23 07:26:08;;;;;;;11.93;2.63;;;21.40;99.90;;;;;;5007304;28;20285;-71
2022/09/23 07:28:36;;;;;;;6.57;2.17;;;21.50;99.90;;;;;;5011102;28;20251;-71
2022/09/23 07:31:14;;;;;;;9.17;2.50;;;21.70;99.90;;;;;;5009546;28;20712;-71
2022/09/23 07:33:44;;;;;;;7.68;2.17;;;21.80;99.90;;;;;;4996638;28;20292;-71
2022/09/23 07:36:18;;;;;;;14.93;2.50;;;21.80;99.90;;;;;;5005344;28;21039;-72
2022/09/23 07:38:46;;;;;;;12.93;2.20;;;21.90;99.90;;;;;;4980573;28;20224;-70
2022/09/23 07:41:16;;;;;;;11.00;2.50;;;22.10;99.90;;;;;;4970916;28;20292;-71
2022/09/23 07:43:44;;;;;;;10.30;2.60;;;22.20;99.90;;;;;;4994646;28;20826;-70
2022/09/23 07:46:16;;;;;;;11.80;2.60;;;22.30;99.90;;;;;;5004462;28;20268;-70
2022/09/23 07:48:45;;;;;;;9.07;2.33;;;22.20;99.90;;;;;;4992076;28;20185;-70
2022/09/23 07:51:20;;;;;;;8.47;2.17;;;22.00;99.90;;;;;;5008902;28;20197;-70
2022/09/23 07:53:50;;;;;;;10.77;2.40;;;22.00;99.90;;;;;;5001306;28;20188;-70
2022/09/23 07:56:18;;;;;;;12.80;2.55;;;22.20;99.90;;;;;;4983551;28;20275;-70
2022/09/23 07:58:58;;;;;;;12.68;2.67;;;22.30;99.90;;;;;;5013768;28;20745;-71
2022/09/23 08:01:34;;;;;;;4.55;2.00;;;22.30;99.90;;;;;;5007525;28;20208;-70
2022/09/23 08:04:05;;;;;;;8.77;2.30;;;22.30;99.90;;;;;;4981819;28;20287;-71
2022/09/23 08:06:32;;;;;;;7.35;2.08;;;22.30;99.90;;;;;;4998945;28;20216;-71
2022/09/23 08:09:00;;;;;;;6.07;2.35;;;22.40;99.90;;;;;;5009755;28;20195;-71
2022/09/23 08:11:30;;;;;;;8.18;2.38;;;22.40;99.90;;;;;;4994567;28;20185;-72
2022/09/23 08:13:57;;;;;;;5.47;2.40;;;22.40;99.90;;;;;;5009098;28;20242;-70
2022/09/23 08:16:24;;;;;;;6.10;2.05;;;22.50;99.90;;;;;;4982572;28;20707;-70
2022/09/23 08:18:50;;;;;;;9.48;2.55;;;22.50;99.90;;;;;;5007900;28;20185;-70
2022/09/23 08:21:21;;;;;;;7.95;2.50;;;22.50;99.90;;;;;;4987336;28;20348;-70
2022/09/23 08:23:48;;;;;;;15.55;2.47;;;22.60;99.90;;;;;;5007088;28;20646;-71
2022/09/23 08:26:15;;;;;;;9.00;2.50;;;22.50;99.90;;;;;;4994833;28;20185;-71
2022/09/23 08:28:44;;;;;;;9.02;2.53;;;22.50;99.90;;;;;;5000543;28;20189;-71
2022/09/23 08:31:13;;;;;;;13.90;2.55;;;22.40;99.90;;;;;;4990659;28;20280;-71
2022/09/23 08:33:40;;;;;;;9.98;2.35;;;22.40;99.90;;;;;;5007295;28;20192;-71
2022/09/23 08:36:07;;;;;;;9.23;2.33;;;22.40;99.90;;;;;;4988064;28;20227;-71
2022/09/23 08:38:33;;;;;;;15.43;2.78;;;22.60;99.90;;;;;;4973986;28;20191;-70
2022/09/23 08:41:17;;;;;;;11.45;2.13;;;22.60;99.90;;;;;;4986531;28;20209;-71
2022/09/23 08:43:51;;;;;;;14.10;2.47;;;22.70;99.90;;;;;;4990029;28;20188;-71
2022/09/23 08:46:32;;;;;;;10.43;2.25;;;22.70;99.90;;;;;;4983790;28;20669;-71
2022/09/23 08:49:00;;;;;;;10.13;1.90;;;22.70;99.90;;;;;;4974823;28;20242;-71
2022/09/23 08:51:45;;;;;;;7.95;2.10;;;22.70;99.90;;;;;;5005835;28;20736;-71
2022/09/23 08:54:17;;;;;;;6.82;2.05;;;23.00;99.90;;;;;;4976286;28;20204;-71
2022/09/23 08:56:50;;;;;;;6.57;2.20;;;22.90;99.90;;;;;;4987172;28;20650;-71
2022/09/23 08:59:41;;;;;;;8.00;2.08;;;23.10;99.90;;;;;;4978792;28;20188;-71
2022/09/23 09:02:22;;;;;;;6.13;2.00;;;23.30;99.90;;;;;;5011547;28;20511;-71
2022/09/23 09:04:59;;;;;;;12.93;2.35;;;23.60;99.90;;;;;;4982779;28;20189;-70
2022/09/23 09:07:33;;;;;;;5.97;2.10;;;23.70;99.90;;;;;;4987971;28;20185;-71
2022/09/23 09:10:21;;;;;;;8.05;1.95;;;23.70;99.90;;;;;;4993117;28;20195;-70
2022/09/23 09:13:02;;;;;;;6.97;1.75;;;23.70;99.90;;;;;;5005058;28;20184;-70
2022/09/23 09:15:28;;;;;;;7.80;2.08;;;23.80;99.90;;;;;;4997398;28;20770;-71
2022/09/23 09:18:03;;;;;;;9.75;2.67;;;24.00;99.90;;;;;;4985820;28;20659;-73
2022/09/23 09:21:18;;;;;;;6.85;2.08;;;24.20;99.90;;;;;;4975395;28;20178;-70
2022/09/23 09:24:00;;;;;;;8.70;2.40;;;24.30;99.90;;;;;;4950970;28;20209;-71
2022/09/23 09:26:34;;;;;;;10.07;2.05;;;24.40;99.90;;;;;;5002338;28;20180;-70
2022/09/23 09:29:08;;;;;;;9.25;2.00;;;24.60;99.90;;;;;;4994610;28;20336;-70
2022/09/23 09:31:49;;;;;;;7.30;1.90;;;24.80;99.90;;;;;;4996797;28;20198;-72
2022/09/23 09:34:41;;;;;;;10.63;2.50;;;25.30;99.90;;;;;;5004578;28;20189;-71
2022/09/23 09:37:35;;;;;;;9.85;1.90;;;25.50;99.90;;;;;;4997873;28;20275;-71
2022/09/23 09:40:02;;;;;;;7.57;2.25;;;25.60;99.90;;;;;;5008896;28;20195;-71
2022/09/23 09:42:41;;;;;;;8.45;1.88;;;26.10;99.90;;;;;;4982526;28;20303;-72
2022/09/23 09:45:52;;;;;;;6.60;2.05;;;26.00;99.90;;;;;;4971415;28;20277;-71
2022/09/23 09:48:38;;;;;;;7.60;2.22;;;25.70;99.90;;;;;;5009984;28;20181;-71
2022/09/23 09:51:26;;;;;;;8.02;2.20;;;27.30;99.90;;;;;;5025626;28;20181;-71
2022/09/23 09:54:13;;;;;;;6.95;2.00;;;27.20;99.90;;;;;;5011292;28;20223;-72
2022/09/23 09:56:41;;;;;;;9.40;2.25;;;27.80;99.90;;;;;;4986423;28;20243;-72
2022/09/23 09:59:19;;;;;;;6.75;1.98;;;26.90;99.90;;;;;;5014580;28;20193;-71
2022/09/23 10:01:46;;;;;;;9.63;2.28;;;26.70;99.90;;;;;;4999437;28;20208;-71
2022/09/23 10:04:33;;;;;;;8.73;2.25;;;26.60;99.90;;;;;;4990869;28;20189;-72
2022/09/23 10:07:13;;;;;;;13.43;2.40;;;26.60;99.90;;;;;;5003021;28;20664;-71
2022/09/23 10:09:48;;;;;;;9.68;2.05;;;26.60;99.90;;;;;;4999858;28;20189;-71
2022/09/23 10:12:25;;;;;;;7.20;1.90;;;26.60;99.90;;;;;;5006016;28;20791;-71
2022/09/23 10:14:56;;;;;;;8.35;2.10;;;26.80;99.90;;;;;;4998441;28;20188;-71
2022/09/23 10:17:32;;;;;;;7.03;1.60;;;27.10;99.90;;;;;;4986357;28;20242;-71
2022/09/23 10:20:13;;;;;;;7.50;2.03;;;27.80;99.90;;;;;;4995249;28;20195;-71
2022/09/23 10:22:41;;;;;;;10.73;2.42;;;28.50;99.90;;;;;;4993149;28;20359;-71
2022/09/23 10:25:25;;;;;;;9.25;2.53;;;29.50;99.90;;;;;;5011227;28;20276;-71
2022/09/23 10:27:52;;;;;;;6.90;2.05;;;28.70;99.90;;;;;;5006847;28;20584;-72
2022/09/23 10:30:27;;;;;;;6.63;2.38;;;27.70;99.90;;;;;;4993132;28;20189;-72
2022/09/23 10:32:55;;;;;;;7.85;1.80;;;27.10;99.90;;;;;;4980804;28;20185;-71
2022/09/23 10:35:25;;;;;;;9.98;2.22;;;26.70;99.90;;;;;;4974540;28;20188;-71
2022/09/23 10:37:58;;;;;;;8.90;2.10;;;26.70;99.90;;;;;;5006129;28;20186;-72
2022/09/23 10:46:38;;;;;;;10.95;2.10;;;28.30;99.90;;;;;;5006515;28;20184;-71
2022/09/23 10:49:42;;;;;;;38.05;4.35;;;27.20;99.90;;;;;;5012198;28;20689;-71
2022/09/23 10:52:43;;;;;;;13.85;2.40;;;26.70;99.90;;;;;;4969446;28;20199;-72
2022/09/23 10:55:24;;;;;;;7.63;2.00;;;26.30;99.90;;;;;;5000908;28;20830;-71
2022/09/23 10:58:31;;;;;;;11.68;2.13;;;25.90;99.90;;;;;;5006854;28;20216;-72
2022/09/23 11:01:23;;;;;;;9.23;1.95;;;25.90;99.90;;;;;;4992573;28;20205;-71
2022/09/23 11:04:38;;;;;;;6.90;1.85;;;25.90;99.90;;;;;;4982509;28;20306;-72
2022/09/23 11:08:00;;;;;;;8.43;2.20;;;26.00;99.90;;;;;;4955275;28;20342;-72
2022/09/23 11:11:10;;;;;;;13.80;2.17;;;26.20;99.90;;;;;;4999614;28;20224;-71
2022/09/23 11:14:04;;;;;;;8.00;2.05;;;26.00;99.90;;;;;;4993571;28;20342;-72
2022/09/23 11:17:26;;;;;;;10.73;2.30;;;25.80;99.90;;;;;;4978464;28;20345;-71
2022/09/23 11:20:28;;;;;;;7.63;2.08;;;25.80;99.90;;;;;;4973015;28;20750;-72
2022/09/23 11:23:12;;;;;;;6.55;1.77;;;25.90;99.90;;;;;;4995916;28;20653;-71
2022/09/23 11:26:24;;;;;;;6.13;2.00;;;25.80;99.90;;;;;;5019167;28;20192;-72
2022/09/23 11:29:27;;;;;;;9.52;2.35;;;25.90;99.90;;;;;;5009985;28;20204;-71
2022/09/23 11:32:41;;;;;;;10.50;2.28;;;25.80;99.90;;;;;;4999879;28;20196;-72
2022/09/23 11:35:18;;;;;;;15.70;2.08;;;25.60;99.90;;;;;;4981353;28;20231;-72
2022/09/23 11:38:03;;;;;;;11.85;2.28;;;25.70;99.90;;;;;;4997991;28;20192;-72
2022/09/23 11:40:38;;;;;;;7.28;1.75;;;25.70;99.90;;;;;;5004706;28;20194;-72
2022/09/23 11:43:24;;;;;;;8.75;2.30;;;25.80;99.90;;;;;;5002736;28;20266;-72
2022/09/23 11:46:00;;;;;;;6.82;2.05;;;25.90;99.90;;;;;;4994308;28;20186;-72
2022/09/23 11:48:53;;;;;;;11.35;2.33;;;25.80;99.90;;;;;;5000729;28;20176;-72
2022/09/23 11:51:39;;;;;;;3.88;1.65;;;25.70;99.90;;;;;;4997350;28;21195;-72
2022/09/23 11:54:20;;;;;;;12.98;2.10;;;25.70;99.90;;;;;;5006690;28;20203;-72
2022/09/23 11:56:53;;;;;;;12.20;2.08;;;25.60;99.90;;;;;;4987046;28;20519;-71
2022/09/23 11:59:39;;;;;;;12.35;2.28;;;25.50;99.90;;;;;;4987003;28;20196;-71
2022/09/23 12:02:32;;;;;;;14.68;2.03;;;25.40;99.90;;;;;;4991371;28;20218;-71
2022/09/23 12:05:26;;;;;;;8.77;2.45;;;25.40;99.90;;;;;;5002953;28;20280;-72
2022/09/23 12:08:10;;;;;;;9.93;2.20;;;25.40;99.90;;;;;;5010030;28;20215;-72
2022/09/23 12:11:10;;;;;;;7.07;2.05;;;25.40;99.90;;;;;;5006153;28;20184;-72
2022/09/23 12:14:17;;;;;;;7.38;2.10;;;25.30;99.90;;;;;;4980127;28;20236;-73
2022/09/23 12:16:47;;;;;;;10.50;2.33;;;25.20;99.90;;;;;;4993462;28;20515;-73
2022/09/23 12:20:05;;;;;;;12.68;2.50;;;25.20;99.90;;;;;;4980479;28;20193;-74
2022/09/23 12:23:09;;;;;;;11.82;2.40;;;25.30;99.90;;;;;;4997310;28;20813;-73
2022/09/23 12:26:04;;;;;;;8.77;2.25;;;25.30;99.90;;;;;;5013697;28;20282;-73
2022/09/23 12:28:44;;;;;;;11.48;2.33;;;25.10;99.90;;;;;;4976403;28;20220;-73
2022/09/23 12:31:17;;;;;;;9.18;2.13;;;25.00;99.90;;;;;;5006804;28;20718;-73
2022/09/23 12:33:53;;;;;;;6.30;1.73;;;25.00;99.90;;;;;;5009099;28;20180;-74
2022/09/23 12:36:34;;;;;;;7.68;2.03;;;25.00;99.90;;;;;;4994364;28;20693;-73
2022/09/23 12:39:14;;;;;;;8.05;2.03;;;24.90;99.90;;;;;;4981393;28;20848;-73
2022/09/23 12:41:53;;;;;;;6.10;1.77;;;24.90;99.90;;;;;;4979304;28;20205;-71
2022/09/23 12:44:42;;;;;;;7.50;1.90;;;24.80;99.90;;;;;;4993216;28;20275;-73
2022/09/23 12:47:24;;;;;;;8.98;1.90;;;24.80;99.90;;;;;;4977150;28;20541;-74
2022/09/23 12:50:00;;;;;;;5.70;2.00;;;24.90;99.90;;;;;;4989949;28;20232;-74
2022/09/23 12:52:30;;;;;;;8.27;1.90;;;24.90;99.90;;;;;;4993600;28;20329;-74
2022/09/23 12:55:20;;;;;;;8.38;1.70;;;24.80;99.90;;;;;;5011811;28;20177;-74
2022/09/23 12:57:47;;;;;;;10.95;2.10;;;24.80;99.90;;;;;;4967637;28;20681;-74
2022/09/23 13:00:23;;;;;;;8.75;2.17;;;24.80;99.90;;;;;;4989130;28;20614;-74
2022/09/23 13:06:37;;;;;;;5.22;1.73;;;24.90;99.90;;;;;;5013282;28;20215;-74
2022/09/23 13:08:52;;;;;;;5.93;2.03;;;24.70;99.90;;;;;;5010494;28;20181;-73
2022/09/23 13:11:28;;;;;;;8.90;2.08;;;24.70;99.90;;;;;;5010770;28;20204;-73
2022/09/23 13:14:01;;;;;;;7.70;1.80;;;24.70;99.90;;;;;;5003116;28;20193;-73
2022/09/23 13:16:46;;;;;;;7.03;2.00;;;24.70;99.90;;;;;;5012970;28;20189;-74
2022/09/23 13:19:28;;;;;;;9.13;2.03;;;24.70;99.90;;;;;;5005831;28;20242;-73
2022/09/23 13:22:07;;;;;;;6.47;1.80;;;24.70;99.90;;;;;;5009693;28;20694;-74
2022/09/23 13:24:44;;;;;;;6.45;2.00;;;24.50;99.90;;;;;;4994501;28;20812;-74
2022/09/23 13:27:35;;;;;;;8.50;1.90;;;24.60;99.90;;;;;;5019314;28;20200;-73
2022/09/23 13:30:15;;;;;;;8.65;2.17;;;24.60;99.90;;;;;;5000159;28;20806;-74
2022/09/23 13:33:09;;;;;;;2.83;1.50;;;24.60;99.90;;;;;;4999718;28;20193;-74
2022/09/23 13:35:45;;;;;;;7.20;1.92;;;24.50;99.90;;;;;;4987225;28;20220;-73
2022/09/23 13:38:28;;;;;;;7.38;1.60;;;24.50;99.90;;;;;;5004523;28;20223;-73
2022/09/23 13:41:18;;;;;;;8.70;1.90;;;24.40;99.90;;;;;;4998029;28;20295;-74
2022/09/23 13:43:50;;;;;;;7.97;1.67;;;24.40;99.90;;;;;;5004700;28;20288;-74
2022/09/23 13:46:22;;;;;;;4.70;1.70;;;24.30;99.90;;;;;;5006550;28;20191;-73
2022/09/23 13:48:56;;;;;;;5.68;1.77;;;24.30;99.90;;;;;;5003829;28;20186;-73